createdAt,value
2023-05-03T00:00:51.766Z,96818.69
2023-05-03T00:05:55.997Z,96828.47
2023-05-03T00:11:00.902Z,96823.59
2023-05-03T00:16:03.864Z,96830.09
2023-05-03T00:21:08.060Z,96830.34
2023-05-03T00:26:11.827Z,96830.06
2023-05-03T00:31:14.663Z,96833.59
2023-05-03T00:36:21.412Z,96828.72
2023-05-03T00:41:25.562Z,96828.16
2023-05-03T00:46:28.742Z,96823.56
2023-05-03T00:51:33.172Z,96818.97
2023-05-03T00:56:44.282Z,96820.59
2023-05-03T01:01:54.251Z,96804.84
2023-05-03T01:07:08.250Z,96806.75
2023-05-03T01:12:21.861Z,96818.66
2023-05-03T01:17:29.815Z,96812.16
2023-05-03T01:22:40.784Z,96812.41
2023-05-03T01:27:45.523Z,96799.97
2023-05-03T01:32:54.036Z,96797.50
2023-05-03T01:37:58.194Z,96788.84
2023-05-03T01:43:03.158Z,96795.88
2023-05-03T01:48:10.795Z,96789.63
2023-05-03T01:53:13.667Z,96782.06
2023-05-03T01:58:17.860Z,96786.66
2023-05-03T02:03:22.476Z,96791.28
2023-05-03T02:08:25.338Z,96800.44
2023-05-03T02:13:29.541Z,96793.41
2023-05-03T02:18:33.693Z,96788.25
2023-05-03T02:23:37.395Z,96784.19
2023-05-03T02:28:42.601Z,96788.81
2023-05-03T02:33:45.988Z,96791.78
2023-05-03T02:38:48.801Z,96790.97
2023-05-03T02:43:52.997Z,96801.81
2023-05-03T02:48:55.854Z,96797.44
2023-05-03T02:53:58.645Z,96796.91
2023-05-03T02:59:02.841Z,96796.09
2023-05-03T03:04:06.654Z,96790.66
2023-05-03T03:09:09.603Z,96789.03
2023-05-03T03:14:13.728Z,96784.72
2023-05-03T03:19:16.538Z,96783.09
2023-05-03T03:24:19.368Z,96786.88
2023-05-03T03:29:23.650Z,96788.50
2023-05-03T03:34:26.517Z,96783.09
2023-05-03T03:39:29.395Z,96788.44
2023-05-03T03:44:33.535Z,96790.94
2023-05-03T03:49:36.399Z,96797.66
2023-05-03T03:54:39.217Z,96787.91
2023-05-03T03:59:43.399Z,96799.78
2023-05-03T04:04:46.782Z,96801.97
2023-05-03T04:09:49.613Z,96807.38
2023-05-03T04:14:53.918Z,96805.50
2023-05-03T04:19:56.941Z,96800.34
2023-05-03T04:25:01.204Z,96802.22
2023-05-03T04:30:06.555Z,96806.84
2023-05-03T04:35:13.675Z,96808.47
2023-05-03T04:40:17.314Z,96808.72
2023-05-03T04:45:21.895Z,96823.09
2023-05-03T04:50:24.725Z,96826.31
2023-05-03T04:55:28.876Z,96838.50
2023-05-03T05:00:34.092Z,96834.19
2023-05-03T05:05:38.299Z,96846.63
2023-05-03T05:10:42.426Z,96845.56
2023-05-03T05:15:46.620Z,96851.81
2023-05-03T05:20:49.509Z,96851.25
2023-05-03T05:25:53.975Z,96853.13
2023-05-03T05:30:58.134Z,96854.22
2023-05-03T05:36:01.004Z,96850.44
2023-05-03T05:41:06.406Z,96857.72
2023-05-03T05:46:10.711Z,96855.84
2023-05-03T05:51:13.514Z,96863.16
2023-05-03T05:56:16.700Z,96859.94
2023-05-03T06:01:20.982Z,96855.03
2023-05-03T06:06:24.163Z,96854.47
2023-05-03T06:11:27.684Z,96851.78
2023-05-03T06:16:32.160Z,96846.09
2023-05-03T06:21:36.370Z,96846.34
2023-05-03T06:26:39.247Z,96836.59
2023-05-03T06:31:43.601Z,96845.28
2023-05-03T06:36:46.544Z,96847.72
2023-05-03T06:41:49.650Z,96844.75
2023-05-03T06:46:53.879Z,96838.00
2023-05-03T06:51:56.842Z,96838.00
2023-05-03T06:56:59.719Z,96829.88
2023-05-03T07:02:04.052Z,96820.66
2023-05-03T07:07:07.286Z,96819.03
2023-05-03T07:12:10.262Z,96814.47
2023-05-03T07:17:14.407Z,96819.41
2023-05-03T07:22:18.872Z,96808.09
2023-05-03T07:27:21.857Z,96812.94
2023-05-03T07:32:26.212Z,96804.81
2023-05-03T07:37:29.165Z,96793.72
2023-05-03T07:42:32.476Z,96804.84
2023-05-03T07:47:38.557Z,96788.94
2023-05-03T07:52:43.382Z,96788.09
2023-05-03T07:57:46.377Z,96784.00
2023-05-03T08:02:50.633Z,96791.34
2023-05-03T08:07:53.702Z,96789.72
2023-05-03T08:12:56.489Z,96798.63
2023-05-03T08:18:01.102Z,96794.56
2023-05-03T08:23:04.106Z,96795.41
2023-05-03T08:28:08.281Z,96792.41
2023-05-03T08:33:12.439Z,96782.94
2023-05-03T08:38:15.371Z,96791.31
2023-05-03T08:43:21.296Z,96785.88
2023-05-03T08:48:25.587Z,96783.75
2023-05-03T08:53:28.423Z,96782.13
2023-05-03T08:58:31.420Z,96790.88
2023-05-03T09:03:38.606Z,96785.16
2023-05-03T09:08:44.441Z,96798.19
2023-05-03T09:13:47.238Z,96798.19
2023-05-03T09:18:59.319Z,96799.81
2023-05-03T09:24:04.038Z,96788.66
2023-05-03T09:29:07.225Z,96798.47
2023-05-03T09:34:23.471Z,96789.50
2023-05-03T09:39:26.511Z,96785.94
2023-05-03T09:44:42.850Z,96794.09
2023-05-03T09:49:47.082Z,96801.97
2023-05-03T09:54:51.513Z,96793.03
2023-05-03T09:59:54.378Z,96797.38
2023-05-03T10:04:59.557Z,96799.81
2023-05-03T10:10:02.469Z,96789.75
2023-05-03T10:15:07.257Z,96782.72
2023-05-03T10:20:22.960Z,96797.91
2023-05-03T10:25:25.815Z,96796.81
2023-05-03T10:30:31.177Z,96793.84
2023-05-03T10:35:35.312Z,96789.75
2023-05-03T10:40:43.159Z,96783.47
2023-05-03T10:45:48.380Z,96782.69
2023-05-03T10:50:53.208Z,96788.63
2023-05-03T10:56:03.304Z,96778.84
2023-05-03T11:01:06.899Z,96769.69
2023-05-03T11:06:11.458Z,96768.63
2023-05-03T11:11:14.343Z,96763.72
2023-05-03T11:16:17.173Z,96772.69
2023-05-03T11:21:21.923Z,96757.50
2023-05-03T11:26:26.273Z,96752.59
2023-05-03T11:31:29.566Z,96747.44
2023-05-03T11:36:34.099Z,96745.53
2023-05-03T11:41:37.159Z,96745.81
2023-05-03T11:46:40.513Z,96739.88
2023-05-03T11:51:47.870Z,96741.75
2023-05-03T11:56:52.973Z,96743.34
2023-05-03T12:01:55.957Z,96737.13
2023-05-03T12:07:00.867Z,96736.06
2023-05-03T12:12:06.207Z,96727.38
2023-05-03T12:17:11.370Z,96725.22
2023-05-03T12:22:26.333Z,96717.06
2023-05-03T12:27:32.845Z,96722.47
2023-05-03T12:32:38.884Z,96709.72
2023-05-03T12:37:43.928Z,96708.63
2023-05-03T12:42:46.944Z,96705.13
2023-05-03T12:47:50.328Z,96694.03
2023-05-03T12:52:54.858Z,96694.22
2023-05-03T12:58:26.803Z,96691.25
2023-05-03T13:03:23.308Z,96690.72
2023-05-03T13:08:34.943Z,96685.00
2023-05-03T13:13:38.190Z,96672.47
2023-05-03T13:18:42.877Z,96663.50
2023-05-03T13:23:48.051Z,96659.94
2023-05-03T13:28:51.125Z,96656.09
2023-05-03T13:33:55.112Z,96645.16
2023-05-03T13:38:59.264Z,96648.13
2023-05-03T13:44:02.109Z,96642.41
2023-05-03T13:49:07.355Z,96626.34
2023-05-03T13:54:11.698Z,96623.84
2023-05-03T13:59:15.025Z,96631.09
2023-05-03T14:04:18.071Z,96616.09
2023-05-03T14:09:22.345Z,96608.75
2023-05-03T14:14:27.800Z,96610.09
2023-05-03T14:19:30.753Z,96611.69
2023-05-03T14:24:35.251Z,96600.41
2023-05-03T14:29:38.066Z,96604.84
2023-05-03T14:34:40.917Z,96581.84
2023-05-03T14:39:45.296Z,96576.63
2023-05-03T14:44:48.083Z,96590.41
2023-05-03T14:49:51.887Z,96578.44
2023-05-03T14:54:56.091Z,96584.31
2023-05-03T15:00:02.090Z,96586.31
2023-05-03T15:05:05.614Z,96582.84
2023-05-03T15:10:10.412Z,96578.84
2023-05-03T15:15:13.683Z,96568.53
2023-05-03T15:20:16.872Z,96577.50
2023-05-03T15:25:23.403Z,96573.44
2023-05-03T15:30:26.274Z,96577.88
2023-05-03T15:35:29.087Z,96582.13
2023-05-03T15:40:33.335Z,96590.81
2023-05-03T15:45:36.244Z,96586.28
2023-05-03T15:50:39.038Z,96584.63
2023-05-03T15:55:43.211Z,96600.09
2023-05-03T16:00:46.817Z,96593.84
2023-05-03T16:05:49.713Z,96597.78
2023-05-03T16:10:53.983Z,96588.69
2023-05-03T16:15:56.880Z,96601.38
2023-05-03T16:20:59.747Z,96592.00
2023-05-03T16:26:12.292Z,96605.44
2023-05-03T16:31:16.924Z,96604.28
2023-05-03T16:36:19.879Z,96610.84
2023-05-03T16:41:24.243Z,96610.69
2023-05-03T16:46:27.305Z,96614.50
2023-05-03T16:51:30.188Z,96616.63
2023-05-03T16:56:34.660Z,96614.16
2023-05-03T17:01:37.575Z,96616.53
2023-05-03T17:06:40.512Z,96612.41
2023-05-03T17:11:44.724Z,96611.28
2023-05-03T17:16:49.044Z,96605.56
2023-05-03T17:21:52.052Z,96607.81
2023-05-03T17:26:56.719Z,96618.53
2023-05-03T17:31:59.594Z,96613.28
2023-05-03T17:37:02.560Z,96620.22
2023-05-03T17:42:08.032Z,96617.03
2023-05-03T17:47:11.088Z,96620.56
2023-05-03T17:52:13.883Z,96618.06
2023-05-03T17:57:17.997Z,96621.91
2023-05-03T18:02:21.814Z,96621.59
2023-05-03T18:07:24.651Z,96623.47
2023-05-03T18:12:29.472Z,96627.91
2023-05-03T18:17:32.999Z,96625.22
2023-05-03T18:22:36.035Z,96626.63
2023-05-03T18:27:40.242Z,96619.53
2023-05-03T18:32:43.277Z,96616.50
2023-05-03T18:37:46.186Z,96626.13
2023-05-03T18:42:50.348Z,96621.91
2023-05-03T18:47:53.224Z,96630.78
2023-05-03T18:52:56.007Z,96640.53
2023-05-03T18:58:00.553Z,96641.72
2023-05-03T19:03:04.286Z,96650.47
2023-05-03T19:08:07.158Z,96653.28
2023-05-03T19:13:11.705Z,96646.00
2023-05-03T19:18:16.552Z,96654.72
2023-05-03T19:23:19.592Z,96649.06
2023-05-03T19:28:23.938Z,96648.53
2023-05-03T19:33:26.832Z,96651.59
2023-05-03T19:38:30.012Z,96665.19
2023-05-03T19:43:34.602Z,96663.56
2023-05-03T19:48:37.421Z,96669.59
2023-05-03T19:53:40.207Z,96665.28
2023-05-03T19:58:44.352Z,96678.28
2023-05-03T20:03:47.344Z,96680.72
2023-05-03T20:08:51.054Z,96678.56
2023-05-03T20:13:55.255Z,96685.09
2023-05-03T20:18:58.098Z,96685.06
2023-05-03T20:24:02.917Z,96701.56
2023-05-03T20:29:07.097Z,96694.00
2023-05-03T20:34:09.909Z,96694.78
2023-05-03T20:39:12.757Z,96698.88
2023-05-03T20:44:16.926Z,96694.50
2023-05-03T20:49:19.782Z,96694.19
2023-05-03T20:54:22.637Z,96696.63
2023-05-03T20:59:27.639Z,96697.94
2023-05-03T21:04:30.775Z,96703.06
2023-05-03T21:09:33.635Z,96701.69
2023-05-03T21:14:38.410Z,96704.09
2023-05-03T21:19:41.298Z,96714.56
2023-05-03T21:24:45.164Z,96705.03
2023-05-03T21:29:49.551Z,96712.31
2023-05-03T21:34:53.638Z,96716.56
2023-05-03T21:40:05.402Z,96715.44
2023-05-03T21:45:11.305Z,96711.41
2023-05-03T21:50:14.229Z,96718.09
2023-05-03T21:55:17.030Z,96717.03
2023-05-03T22:00:21.508Z,96719.16
2023-05-03T22:05:24.520Z,96715.88
2023-05-03T22:10:27.494Z,96723.41
2023-05-03T22:15:33.912Z,96719.56
2023-05-03T22:20:36.732Z,96716.88
2023-05-03T22:25:39.521Z,96715.53
2023-05-03T22:30:43.742Z,96718.75
2023-05-03T22:35:46.870Z,96710.34
2023-05-03T22:40:49.693Z,96717.91
2023-05-03T22:45:55.466Z,96717.81
2023-05-03T22:50:58.405Z,96720.47
2023-05-03T22:56:04.312Z,96721.72
2023-05-03T23:01:11.592Z,96720.97
2023-05-03T23:06:15.110Z,96731.59
2023-05-03T23:11:17.962Z,96724.56
2023-05-03T23:16:22.343Z,96721.22
2023-05-03T23:21:25.298Z,96729.38
2023-05-03T23:26:29.035Z,96712.53
2023-05-03T23:31:34.970Z,96722.19
2023-05-03T23:36:39.236Z,96723.19
2023-05-03T23:41:42.170Z,96718.59
2023-05-03T23:46:46.554Z,96723.09
2023-05-03T23:51:49.350Z,96715.38
2023-05-03T23:56:52.571Z,96726.50
